Time;durP1;ratioP1;P1;durP2;ratioP2;P2;SDS_P1;SDS_P2;PMS_P1;PMS_P2;Temp;Humidity;BMP_temperature;BMP_pressure;BME280_temperature;BME280_humidity;BME280_pressure;Samples;Min_cycle;Max_cycle;Signal;HPM_P1;HPM_P2
2022/07/21 00:02:01;;;;;;;;;;;19.70;85.30;;;;;;5072544;28;20049;-45
2022/07/21 00:04:28;;;;;;;16.73;7.40;;;19.60;85.40;;;;;;5071951;28;19951;-47
2022/07/21 00:06:55;;;;;;;13.20;6.78;;;19.60;85.50;;;;;;5071915;28;20028;-45
2022/07/21 00:09:24;;;;;;;12.48;7.50;;;19.60;85.60;;;;;;5071948;28;20438;-45
2022/07/21 00:11:51;;;;;;;13.80;7.97;;;19.60;85.60;;;;;;5072062;28;20369;-45
2022/07/21 00:14:17;;;;;;;14.35;8.13;;;19.60;85.70;;;;;;5072165;28;20040;-45
2022/07/21 00:16:44;;;;;;;14.38;8.60;;;19.50;85.80;;;;;;5071946;28;20492;-46
2022/07/21 00:19:12;;;;;;;14.75;9.13;;;19.50;85.60;;;;;;5071969;28;20426;-46
2022/07/21 00:21:38;;;;;;;19.40;8.70;;;19.50;85.70;;;;;;5071542;28;20459;-45
2022/07/21 00:24:05;;;;;;;17.95;9.40;;;19.40;85.80;;;;;;5054042;28;20063;-45
2022/07/21 00:26:31;;;;;;;13.15;9.00;;;19.40;85.80;;;;;;5053986;28;20035;-45
2022/07/21 00:29:00;;;;;;;17.52;10.15;;;19.40;85.90;;;;;;5071562;28;20036;-45
2022/07/21 00:31:27;;;;;;;14.50;8.40;;;19.40;85.80;;;;;;5071632;28;20048;-45
2022/07/21 00:33:55;;;;;;;14.10;8.77;;;19.40;85.80;;;;;;5071545;28;20263;-45
2022/07/21 00:36:23;;;;;;;10.98;6.95;;;19.40;85.80;;;;;;5054029;28;20059;-45
2022/07/21 00:38:51;;;;;;;13.13;7.82;;;19.40;85.80;;;;;;5071649;28;20035;-46
2022/07/21 00:41:18;;;;;;;15.63;7.72;;;19.40;85.80;;;;;;5071272;28;20032;-45
2022/07/21 00:43:45;;;;;;;13.05;8.52;;;19.40;85.80;;;;;;5071232;28;20027;-46
2022/07/21 00:46:12;;;;;;;12.07;7.20;;;19.40;85.80;;;;;;5070909;28;20072;-46
2022/07/21 00:48:39;;;;;;;16.92;9.30;;;19.30;85.80;;;;;;5071151;28;20016;-46
2022/07/21 00:51:07;;;;;;;16.95;8.73;;;19.30;85.80;;;;;;5053773;28;20082;-46
2022/07/21 00:53:33;;;;;;;17.77;8.85;;;19.30;85.80;;;;;;5071193;28;20031;-46
2022/07/21 00:56:01;;;;;;;16.77;8.32;;;19.30;86.00;;;;;;5052916;28;20107;-45
2022/07/21 00:58:30;;;;;;;15.43;9.68;;;19.20;86.00;;;;;;5053633;28;20408;-45
2022/07/21 01:00:57;;;;;;;13.88;7.78;;;19.20;86.10;;;;;;5070957;28;20017;-46
2022/07/21 01:03:26;;;;;;;14.55;8.05;;;19.20;86.20;;;;;;5070690;28;20042;-46
2022/07/21 01:05:53;;;;;;;16.48;9.30;;;19.20;86.30;;;;;;5070912;28;20341;-47
2022/07/21 01:08:20;;;;;;;16.63;8.38;;;19.20;86.30;;;;;;5053405;28;20028;-46
2022/07/21 01:10:53;;;;;;;18.38;9.95;;;19.20;86.40;;;;;;5070879;28;20100;-46
2022/07/21 01:13:19;;;;;;;14.23;10.48;;;19.30;86.40;;;;;;5070805;28;20032;-47
2022/07/21 01:15:47;;;;;;;16.80;10.35;;;19.30;86.40;;;;;;5070598;28;20056;-46
2022/07/21 01:18:18;;;;;;;17.58;10.15;;;19.30;86.50;;;;;;5053258;28;20100;-46
2022/07/21 01:20:54;;;;;;;12.75;9.68;;;19.30;86.60;;;;;;5070611;28;20341;-46
2022/07/21 01:23:22;;;;;;;16.25;10.40;;;19.30;86.70;;;;;;5070785;28;20353;-46
2022/07/21 01:25:52;;;;;;;16.70;10.05;;;19.40;86.70;;;;;;5070320;28;20353;-47
2022/07/21 01:28:20;;;;;;;19.23;11.32;;;19.40;86.50;;;;;;5070257;28;20035;-50
2022/07/21 01:30:47;;;;;;;15.05;10.13;;;19.20;86.90;;;;;;5070600;28;20419;-45
2022/07/21 01:33:14;;;;;;;19.30;9.10;;;19.10;87.80;;;;;;5070263;28;20024;-45
2022/07/21 01:35:41;;;;;;;16.48;11.27;;;19.10;88.00;;;;;;5070487;28;20358;-45
2022/07/21 01:41:28;;;;;;;14.85;9.68;;;19.20;87.70;;;;;;5052674;28;20032;-45
2022/07/21 01:43:44;;;;;;;12.10;8.93;;;19.50;86.60;;;;;;5070422;28;20102;-45
2022/07/21 01:46:14;;;;;;;17.92;9.73;;;19.70;86.00;;;;;;5069691;28;20052;-44
2022/07/21 01:48:43;;;;;;;19.15;10.68;;;19.90;85.80;;;;;;5053143;28;20330;-49
2022/07/21 01:51:11;;;;;;;20.73;10.88;;;19.90;85.90;;;;;;5069955;28;20047;-49
2022/07/21 01:53:41;;;;;;;13.27;10.05;;;19.90;86.20;;;;;;5052600;28;20111;-49
2022/07/21 01:56:08;;;;;;;14.35;9.48;;;19.90;86.40;;;;;;5051758;28;20090;-50
2022/07/21 01:58:38;;;;;;;14.13;9.77;;;19.90;86.70;;;;;;5069967;28;20450;-48
2022/07/21 02:01:05;;;;;;;14.70;9.30;;;19.80;87.10;;;;;;5036252;28;20103;-48
2022/07/21 02:03:32;;;;;;;14.18;10.20;;;19.70;87.40;;;;;;5069736;28;20090;-48
2022/07/21 02:06:07;;;;;;;12.55;10.10;;;19.70;87.50;;;;;;5069867;28;20480;-50
2022/07/21 02:08:34;;;;;;;15.85;10.70;;;19.60;87.70;;;;;;5069923;28;20024;-50
2022/07/21 02:11:02;;;;;;;16.48;9.55;;;19.40;87.90;;;;;;5069799;28;20500;-48
2022/07/21 02:13:29;;;;;;;14.40;10.82;;;19.40;88.10;;;;;;5069500;28;20097;-48
2022/07/21 02:15:56;;;;;;;13.52;10.65;;;19.40;88.30;;;;;;5052133;28;20449;-49
2022/07/21 02:18:24;;;;;;;12.18;10.40;;;19.30;88.30;;;;;;5052300;28;20067;-47
2022/07/21 02:20:51;;;;;;;16.13;11.75;;;19.30;88.40;;;;;;5069740;28;20040;-48
2022/07/21 02:23:18;;;;;;;14.05;10.43;;;19.20;88.40;;;;;;5069340;28;20043;-46
2022/07/21 02:25:44;;;;;;;15.43;12.20;;;19.20;88.40;;;;;;5069606;28;20027;-47
2022/07/21 02:28:14;;;;;;;14.38;12.25;;;19.20;88.40;;;;;;5069638;28;20036;-48
2022/07/21 02:30:43;;;;;;;15.48;11.05;;;19.30;88.30;;;;;;5069649;28;20048;-46
2022/07/21 02:33:11;;;;;;;14.15;11.57;;;19.30;88.30;;;;;;5069461;28;20338;-47
2022/07/21 02:35:38;;;;;;;15.32;12.68;;;19.40;88.20;;;;;;5069343;28;20028;-46
2022/07/21 02:38:05;;;;;;;12.57;10.65;;;19.40;88.20;;;;;;5069632;28;20036;-46
2022/07/21 02:40:31;;;;;;;16.17;12.98;;;19.40;88.10;;;;;;5069373;28;20100;-45
2022/07/21 02:42:57;;;;;;;16.48;12.23;;;19.40;87.90;;;;;;5051685;28;20028;-46
2022/07/21 02:45:26;;;;;;;15.43;11.85;;;19.40;88.00;;;;;;5069172;28;20048;-45
2022/07/21 02:48:11;;;;;;;14.68;12.55;;;19.40;88.10;;;;;;5051632;28;20024;-45
2022/07/21 02:50:41;;;;;;;15.02;11.75;;;19.40;87.90;;;;;;5051803;28;20017;-45
2022/07/21 02:53:19;;;;;;;16.17;12.18;;;19.40;88.00;;;;;;5069271;28;20453;-45
2022/07/21 02:55:54;;;;;;;13.35;11.98;;;19.40;87.90;;;;;;5069260;28;20773;-45
2022/07/21 02:58:38;;;;;;;14.75;11.77;;;19.50;87.90;;;;;;5051736;28;20452;-47
2022/07/21 03:01:06;;;;;;;16.40;11.40;;;19.50;87.90;;;;;;5069204;28;20032;-45
2022/07/21 03:03:36;;;;;;;15.85;11.90;;;19.50;87.90;;;;;;5051419;28;20468;-47
2022/07/21 03:06:04;;;;;;;13.10;11.23;;;19.50;87.90;;;;;;5069023;28;20028;-45
2022/07/21 03:08:30;;;;;;;16.23;13.48;;;19.50;87.90;;;;;;5053173;28;20040;-45
2022/07/21 03:10:56;;;;;;;16.83;12.30;;;19.50;87.60;;;;;;5055106;28;20024;-45
2022/07/21 03:13:26;;;;;;;14.60;10.90;;;19.40;87.90;;;;;;5055482;28;20039;-45
2022/07/21 03:15:53;;;;;;;13.95;11.45;;;19.50;88.00;;;;;;5072937;28;20108;-45
2022/07/21 03:18:20;;;;;;;14.68;12.57;;;19.50;88.00;;;;;;5073169;28;20025;-45
2022/07/21 03:20:47;;;;;;;14.07;12.57;;;19.50;88.00;;;;;;5072996;28;20553;-45
2022/07/21 03:23:14;;;;;;;14.15;11.85;;;19.50;87.90;;;;;;5072517;28;20502;-45
2022/07/21 03:25:41;;;;;;;11.32;10.20;;;19.40;87.80;;;;;;5055234;28;20029;-44
2022/07/21 03:28:11;;;;;;;14.05;11.35;;;19.50;88.00;;;;;;5054970;28;20036;-45
2022/07/21 03:30:37;;;;;;;14.95;13.35;;;19.50;88.00;;;;;;5072860;28;20035;-44
2022/07/21 03:33:07;;;;;;;16.00;12.20;;;19.50;88.00;;;;;;5072561;28;20046;-45
2022/07/21 03:35:35;;;;;;;14.55;13.00;;;19.60;88.10;;;;;;5072879;28;20342;-45
2022/07/21 03:38:05;;;;;;;14.25;12.85;;;19.60;88.20;;;;;;5072536;28;20362;-45
2022/07/21 03:40:34;;;;;;;17.95;13.48;;;19.60;88.00;;;;;;5072198;28;20039;-46
2022/07/21 03:43:02;;;;;;;17.00;13.10;;;19.50;88.10;;;;;;5072476;28;20330;-47
2022/07/21 03:45:33;;;;;;;17.42;15.30;;;19.50;88.00;;;;;;5072330;28;20127;-51
2022/07/21 03:48:04;;;;;;;18.73;15.38;;;19.50;88.00;;;;;;5072450;28;20656;-49
2022/07/21 03:50:32;;;;;;;17.48;14.23;;;19.50;88.00;;;;;;5072222;28;20021;-50
2022/07/21 03:52:59;;;;;;;17.10;15.40;;;19.50;88.10;;;;;;5072171;28;20032;-47
2022/07/21 03:55:29;;;;;;;16.92;15.25;;;19.50;88.20;;;;;;5054656;28;20174;-48
2022/07/21 03:57:58;;;;;;;18.30;16.20;;;19.50;88.10;;;;;;5071938;28;20048;-48
2022/07/21 04:00:41;;;;;;;16.55;14.95;;;19.40;88.20;;;;;;5071933;28;20137;-48
2022/07/21 04:03:09;;;;;;;19.27;17.38;;;19.40;88.30;;;;;;5071804;28;20036;-48
2022/07/21 04:05:38;;;;;;;18.63;16.75;;;19.40;88.40;;;;;;5071587;28;20032;-50
2022/07/21 04:08:09;;;;;;;21.45;18.67;;;19.40;88.50;;;;;;5071407;28;20013;-52
2022/07/21 04:10:37;;;;;;;21.25;19.10;;;19.40;88.60;;;;;;5070919;28;20099;-50
2022/07/21 04:13:06;;;;;;;23.17;19.95;;;19.40;88.90;;;;;;5053761;28;20147;-55
2022/07/21 04:15:34;;;;;;;24.20;20.08;;;19.40;88.80;;;;;;5054199;28;20028;-55
2022/07/21 04:18:03;;;;;;;22.08;19.88;;;19.40;88.90;;;;;;5071083;28;20029;-55
2022/07/21 04:20:31;;;;;;;23.98;19.83;;;19.40;89.00;;;;;;5070879;28;20041;-51
2022/07/21 04:22:58;;;;;;;21.58;17.83;;;19.40;89.00;;;;;;5071092;28;20067;-51
2022/07/21 04:25:25;;;;;;;23.52;18.25;;;19.40;89.10;;;;;;5071178;28;20024;-53
2022/07/21 04:27:52;;;;;;;20.50;18.50;;;19.40;89.10;;;;;;5071247;28;20346;-54
2022/07/21 04:30:23;;;;;;;21.20;19.00;;;19.40;89.20;;;;;;5071083;28;20025;-53
2022/07/21 04:32:49;;;;;;;21.38;19.20;;;19.40;89.20;;;;;;5053749;28;20441;-55
2022/07/21 04:35:17;;;;;;;19.92;18.02;;;19.40;89.40;;;;;;5071688;28;20033;-53
2022/07/21 04:37:45;;;;;;;21.05;18.80;;;19.40;89.60;;;;;;5071199;28;20108;-53
2022/07/21 04:40:13;;;;;;;21.73;18.23;;;19.40;89.60;;;;;;5071338;28;20449;-51
2022/07/21 04:42:39;;;;;;;20.27;18.23;;;19.40;89.60;;;;;;5071209;28;20313;-54
2022/07/21 04:45:06;;;;;;;25.42;18.20;;;19.40;89.60;;;;;;5071447;28;20036;-53
2022/07/21 04:47:46;;;;;;;20.65;18.65;;;19.40;89.50;;;;;;5053682;28;20120;-49
2022/07/21 04:50:13;;;;;;;20.27;18.23;;;19.40;89.60;;;;;;5071157;28;20104;-49
2022/07/21 04:52:40;;;;;;;23.38;20.42;;;19.40;89.60;;;;;;5071004;28;20032;-50
2022/07/21 04:55:08;;;;;;;22.00;19.83;;;19.40;89.70;;;;;;5053825;28;20029;-60
2022/07/21 04:57:42;;;;;;;21.20;19.05;;;19.40;89.90;;;;;;5071092;28;20428;-59
2022/07/21 05:00:12;;;;;;;22.00;19.77;;;19.40;89.90;;;;;;5053513;28;20036;-56
2022/07/21 05:02:39;;;;;;;20.00;18.05;;;19.40;90.00;;;;;;5070918;28;20021;-59
2022/07/21 05:05:10;;;;;;;21.20;19.13;;;19.40;90.00;;;;;;5053379;28;20033;-56
2022/07/21 05:07:36;;;;;;;21.30;19.02;;;19.40;90.00;;;;;;5070901;28;20082;-60
2022/07/21 05:10:08;;;;;;;22.35;19.55;;;19.40;90.10;;;;;;5070800;28;20078;-60
2022/07/21 05:12:34;;;;;;;23.17;20.50;;;19.40;90.10;;;;;;5071023;28;20456;-61
2022/07/21 05:15:00;;;;;;;26.52;23.52;;;19.40;90.10;;;;;;5053018;28;20127;-60
2022/07/21 05:17:30;;;;;;;24.85;20.70;;;19.40;90.20;;;;;;5070890;28;20393;-58
2022/07/21 05:20:00;;;;;;;22.55;20.25;;;19.40;90.30;;;;;;5036808;28;20458;-57
2022/07/21 05:22:30;;;;;;;23.27;20.98;;;19.40;90.30;;;;;;5070343;28;20145;-51
2022/07/21 05:24:59;;;;;;;23.77;19.05;;;19.40;90.30;;;;;;5070384;28;20036;-50
2022/07/21 05:27:25;;;;;;;21.33;19.08;;;19.40;90.30;;;;;;5070555;28;20021;-48
2022/07/21 05:29:52;;;;;;;22.40;20.13;;;19.40;90.40;;;;;;5070044;28;20074;-50
2022/07/21 05:32:19;;;;;;;23.50;21.20;;;19.40;90.40;;;;;;5069980;28;20040;-49
2022/07/21 05:34:47;;;;;;;21.77;19.60;;;19.40;90.40;;;;;;5070543;28;20032;-52
2022/07/21 05:37:14;;;;;;;23.02;20.80;;;19.50;90.50;;;;;;5070367;28;20111;-49
2022/07/21 05:39:44;;;;;;;23.75;20.38;;;19.50;90.40;;;;;;5070164;28;20319;-49
2022/07/21 05:42:11;;;;;;;23.73;21.20;;;19.40;90.40;;;;;;5070338;28;20048;-49
2022/07/21 05:44:36;;;;;;;21.98;19.83;;;19.50;90.40;;;;;;5070088;28;20056;-51
2022/07/21 05:47:03;;;;;;;26.30;21.65;;;19.50;90.50;;;;;;5052364;28;20135;-50
2022/07/21 05:49:30;;;;;;;22.73;20.33;;;19.50;90.50;;;;;;5070085;28;20025;-48
2022/07/21 05:51:57;;;;;;;21.83;18.30;;;19.50;90.40;;;;;;5069918;28;20025;-47
2022/07/21 05:54:24;;;;;;;20.40;18.35;;;19.60;90.50;;;;;;5070028;28;20327;-48
2022/07/21 05:56:51;;;;;;;21.40;19.20;;;19.60;90.50;;;;;;5069936;28;20060;-48
2022/07/21 05:59:18;;;;;;;24.05;20.63;;;19.60;90.40;;;;;;5069671;28;20028;-48
2022/07/21 06:01:45;;;;;;;22.73;20.33;;;19.60;90.30;;;;;;5070068;28;20039;-47
2022/07/21 06:04:13;;;;;;;24.55;21.67;;;19.50;90.40;;;;;;5052244;28;20020;-47
2022/07/21 06:06:39;;;;;;;22.60;20.27;;;19.50;90.40;;;;;;5035922;28;20040;-47
2022/07/21 06:09:07;;;;;;;21.38;19.13;;;19.60;90.60;;;;;;5069651;28;20426;-46
2022/07/21 06:11:34;;;;;;;23.38;21.00;;;19.60;90.60;;;;;;5069730;28;20022;-47
2022/07/21 06:14:01;;;;;;;21.52;18.83;;;19.60;90.60;;;;;;5069551;28;20027;-46
2022/07/21 06:16:28;;;;;;;19.60;17.38;;;19.70;90.60;;;;;;5052009;28;20024;-46
2022/07/21 06:18:55;;;;;;;24.92;20.42;;;19.80;90.70;;;;;;5069426;28;20020;-46
2022/07/21 06:21:22;;;;;;;21.73;19.52;;;19.90;90.60;;;;;;5069651;28;20024;-46
2022/07/21 06:23:49;;;;;;;23.67;21.27;;;19.90;90.60;;;;;;5069516;28;20032;-48
2022/07/21 06:26:15;;;;;;;21.70;19.40;;;20.00;90.40;;;;;;5069620;28;20457;-46
2022/07/21 06:28:41;;;;;;;19.45;17.45;;;20.00;90.30;;;;;;5068536;28;20028;-45
2022/07/21 06:31:11;;;;;;;20.48;18.25;;;20.10;90.30;;;;;;5051981;28;20025;-46
2022/07/21 06:33:37;;;;;;;24.25;19.75;;;20.20;90.30;;;;;;5069499;28;20028;-46
2022/07/21 06:36:05;;;;;;;20.48;17.88;;;20.20;90.20;;;;;;5051793;28;20349;-45
2022/07/21 06:38:32;;;;;;;21.08;19.05;;;20.40;90.20;;;;;;5069069;28;20116;-45
2022/07/21 06:41:00;;;;;;;19.35;17.45;;;20.40;89.90;;;;;;5069392;28;20111;-46
2022/07/21 06:43:26;;;;;;;21.73;19.48;;;20.40;89.80;;;;;;5069046;28;20032;-45
2022/07/21 06:45:54;;;;;;;20.52;18.35;;;20.40;89.70;;;;;;5069285;28;20385;-46
2022/07/21 06:48:22;;;;;;;20.88;18.80;;;20.40;89.40;;;;;;5051569;28;20029;-45
2022/07/21 06:50:49;;;;;;;19.75;17.85;;;20.50;89.40;;;;;;5069210;28;20115;-47
2022/07/21 06:53:18;;;;;;;19.95;17.35;;;20.60;89.20;;;;;;5069223;28;20037;-45
2022/07/21 06:55:45;;;;;;;19.42;17.40;;;20.70;89.40;;;;;;5069292;28;20033;-47
2022/07/21 06:58:18;;;;;;;17.45;15.57;;;20.70;88.70;;;;;;5051312;28;20033;-46
2022/07/21 07:00:46;;;;;;;19.65;17.00;;;20.90;88.80;;;;;;5069127;28;20337;-45
2022/07/21 07:03:13;;;;;;;19.88;17.83;;;20.90;88.40;;;;;;5069163;28;20025;-45
2022/07/21 07:05:42;;;;;;;19.92;17.92;;;20.90;88.30;;;;;;5069245;28;20031;-45
2022/07/21 07:08:10;;;;;;;18.33;16.60;;;20.90;87.90;;;;;;5069300;28;20335;-45
2022/07/21 07:10:39;;;;;;;19.38;17.38;;;20.90;87.90;;;;;;5069332;28;20094;-45
2022/07/21 07:13:07;;;;;;;19.95;15.95;;;20.80;87.90;;;;;;5069016;28;20028;-45
2022/07/21 07:15:34;;;;;;;19.80;17.90;;;20.90;88.20;;;;;;5051422;28;20408;-45
2022/07/21 07:18:01;;;;;;;19.15;17.20;;;21.10;87.90;;;;;;5051617;28;20086;-47
2022/07/21 07:20:31;;;;;;;17.10;15.50;;;21.40;87.50;;;;;;5051313;28;20025;-45
2022/07/21 07:22:57;;;;;;;19.13;15.27;;;21.40;87.10;;;;;;5068864;28;20047;-46
2022/07/21 07:25:24;;;;;;;19.13;17.02;;;21.50;86.20;;;;;;5068959;28;20021;-46
2022/07/21 07:27:51;;;;;;;17.58;15.75;;;21.50;85.70;;;;;;5068921;28;20020;-47
2022/07/21 07:30:19;;;;;;;17.15;15.35;;;21.50;86.20;;;;;;5051094;28;20477;-46
2022/07/21 07:32:49;;;;;;;18.35;16.27;;;21.60;86.40;;;;;;5068894;28;20033;-47
2022/07/21 07:35:16;;;;;;;23.65;20.00;;;21.60;86.40;;;;;;5068849;28;20040;-46
2022/07/21 07:37:46;;;;;;;18.35;16.65;;;21.60;85.90;;;;;;5068854;28;20067;-45
2022/07/21 07:40:16;;;;;;;20.40;18.33;;;21.70;86.20;;;;;;5068965;28;20029;-46
2022/07/21 07:42:42;;;;;;;17.90;16.15;;;21.70;85.80;;;;;;5068804;28;20039;-47
2022/07/21 07:45:09;;;;;;;21.45;19.25;;;21.80;85.80;;;;;;5068617;28;20074;-47
2022/07/21 07:47:36;;;;;;;21.52;19.38;;;21.90;85.60;;;;;;5068882;28;20104;-47
2022/07/21 07:50:06;;;;;;;19.95;17.80;;;21.90;85.20;;;;;;5068791;28;20473;-47
2022/07/21 07:52:34;;;;;;;20.05;17.92;;;21.90;85.40;;;;;;5051024;28;20461;-48
2022/07/21 07:55:06;;;;;;;21.52;19.42;;;21.90;85.10;;;;;;5070959;28;20024;-48
2022/07/21 07:57:34;;;;;;;22.05;19.83;;;21.90;85.10;;;;;;5071976;28;20036;-47
2022/07/21 08:00:05;;;;;;;19.35;17.48;;;21.80;84.80;;;;;;5054486;28;20020;-48
2022/07/21 08:02:32;;;;;;;20.10;18.10;;;21.70;85.30;;;;;;5072097;28;20042;-47
2022/07/21 08:05:01;;;;;;;23.13;21.02;;;21.50;85.00;;;;;;5072214;28;20024;-46
2022/07/21 08:07:28;;;;;;;18.08;16.38;;;21.30;85.10;;;;;;5054734;28;20064;-46
2022/07/21 08:09:55;;;;;;;21.25;18.98;;;21.20;85.90;;;;;;5054405;28;20036;-47
2022/07/21 08:12:25;;;;;;;23.73;21.33;;;21.10;86.10;;;;;;5072140;28;20345;-48
2022/07/21 08:14:51;;;;;;;;;;;21.00;86.30;;;;;;5072581;28;20430;-48
2022/07/21 08:17:19;;;;;;;24.60;22.20;;;20.80;86.70;;;;;;5054219;28;19947;-47
2022/07/21 08:19:45;;;;;;;22.38;20.27;;;20.70;87.20;;;;;;5071553;28;20021;-47
2022/07/21 08:22:12;;;;;;;23.35;20.92;;;20.70;87.30;;;;;;5054067;28;20071;-46
2022/07/21 08:24:39;;;;;;;23.83;21.55;;;20.60;87.70;;;;;;5071518;28;20024;-50
2022/07/21 08:27:08;;;;;;;23.52;21.33;;;20.50;88.00;;;;;;5054259;28;20028;-47
2022/07/21 08:29:35;;;;;;;23.65;21.23;;;20.40;88.10;;;;;;5071394;28;20031;-48
2022/07/21 08:32:03;;;;;;;23.13;20.65;;;20.40;88.30;;;;;;5071582;28;20115;-47
2022/07/21 08:34:30;;;;;;;23.30;20.90;;;20.40;88.40;;;;;;5071383;28;20036;-46
2022/07/21 08:36:58;;;;;;;24.00;21.63;;;20.40;88.50;;;;;;5071437;28;20027;-49
2022/07/21 08:39:25;;;;;;;25.45;22.75;;;20.40;88.70;;;;;;5071797;28;20388;-46
2022/07/21 08:41:54;;;;;;;25.10;22.70;;;20.30;88.90;;;;;;5071178;28;20071;-46
2022/07/21 08:44:22;;;;;;;28.60;25.85;;;20.30;89.10;;;;;;5071677;28;20055;-46
2022/07/21 08:46:50;;;;;;;23.38;20.90;;;20.30;89.20;;;;;;5071111;28;20063;-47
2022/07/21 08:49:21;;;;;;;26.45;23.83;;;20.40;89.40;;;;;;5071042;28;20052;-45
2022/07/21 08:51:51;;;;;;;26.08;23.40;;;20.40;89.30;;;;;;5070765;28;20024;-46
2022/07/21 08:54:21;;;;;;;23.83;21.35;;;20.50;89.30;;;;;;5052959;28;20116;-46
2022/07/21 08:56:49;;;;;;;28.20;25.42;;;20.50;89.30;;;;;;5071037;28;20496;-47
2022/07/21 08:59:16;;;;;;;24.58;22.08;;;20.50;89.20;;;;;;5070797;28;20028;-46
2022/07/21 09:01:44;;;;;;;26.02;23.42;;;20.60;89.30;;;;;;5070771;28;20020;-46
2022/07/21 09:04:23;;;;;;;24.80;22.33;;;20.50;89.10;;;;;;5070680;28;20020;-46
2022/07/21 09:07:02;;;;;;;23.27;21.08;;;20.40;89.00;;;;;;5070360;28;20730;-46
2022/07/21 09:09:29;;;;;;;22.13;19.85;;;20.50;89.10;;;;;;5070499;28;20352;-48
2022/07/21 09:11:57;;;;;;;24.23;21.88;;;20.50;89.20;;;;;;5070451;28;20032;-48
2022/07/21 09:14:26;;;;;;;23.73;21.50;;;20.50;88.90;;;;;;5070171;28;20028;-46
2022/07/21 09:17:10;;;;;;;23.98;21.52;;;20.40;88.50;;;;;;5070154;28;20016;-46
2022/07/21 09:19:41;;;;;;;25.17;22.55;;;20.40;88.80;;;;;;5070429;28;20056;-46
2022/07/21 09:22:14;;;;;;;20.42;18.17;;;20.40;88.90;;;;;;5070204;28;20079;-49
2022/07/21 09:24:40;;;;;;;25.17;22.58;;;20.40;88.90;;;;;;5070008;28;20082;-48
2022/07/21 09:27:10;;;;;;;24.98;22.27;;;20.40;88.80;;;;;;5052574;28;20036;-47
2022/07/21 09:29:46;;;;;;;21.20;19.30;;;20.50;88.70;;;;;;5069906;28;20371;-46
2022/07/21 09:32:27;;;;;;;24.80;22.45;;;20.50;88.70;;;;;;5069920;28;20037;-46
2022/07/21 09:35:09;;;;;;;22.13;19.83;;;20.50;88.40;;;;;;5052234;28;20043;-49
2022/07/21 09:37:37;;;;;;;26.25;23.55;;;20.50;88.60;;;;;;5070079;28;20041;-46
2022/07/21 09:40:13;;;;;;;22.17;20.10;;;20.50;88.40;;;;;;5052339;28;20027;-47
2022/07/21 09:42:48;;;;;;;18.50;16.80;;;20.60;88.60;;;;;;5069708;28;20052;-46
2022/07/21 09:45:20;;;;;;;27.10;24.48;;;20.60;88.70;;;;;;5069589;28;20072;-50
2022/07/21 09:47:47;;;;;;;20.30;17.73;;;20.70;88.60;;;;;;5069739;28;20100;-49
2022/07/21 09:50:16;;;;;;;24.40;22.17;;;20.80;88.70;;;;;;5035454;28;20021;-51
2022/07/21 09:52:44;;;;;;;23.02;20.77;;;20.90;88.20;;;;;;5069772;28;20046;-49
2022/07/21 09:55:14;;;;;;;22.10;19.95;;;20.80;88.10;;;;;;5069374;28;20052;-49
2022/07/21 09:57:42;;;;;;;22.10;19.95;;;20.80;88.40;;;;;;5051915;28;20029;-52
2022/07/21 10:00:15;;;;;;;23.48;21.25;;;20.70;88.30;;;;;;5069286;28;20101;-49
2022/07/21 10:02:43;;;;;;;25.83;23.42;;;20.60;88.40;;;;;;5069536;28;20479;-48
2022/07/21 10:05:28;;;;;;;28.70;25.67;;;20.50;88.30;;;;;;5070793;28;20108;-59
2022/07/21 10:07:56;;;;;;;24.65;20.00;;;20.50;88.70;;;;;;5070238;28;20117;-65
2022/07/21 10:10:25;;;;;;;19.73;17.42;;;20.30;88.60;;;;;;5051563;28;20033;-65
2022/07/21 10:12:52;;;;;;;20.80;18.60;;;20.10;88.70;;;;;;5051504;28;20031;-64
2022/07/21 10:15:19;;;;;;;18.77;16.88;;;19.90;88.70;;;;;;5068740;28;20414;-62
2022/07/21 10:17:55;;;;;;;22.40;20.17;;;19.90;89.20;;;;;;5050154;28;20040;-62
2022/07/21 10:20:41;;;;;;;20.73;18.63;;;19.80;89.60;;;;;;5068601;28;20024;-61
2022/07/21 10:23:27;;;;;;;18.73;16.98;;;19.80;89.80;;;;;;5068050;28;20068;-62
2022/07/21 10:25:54;;;;;;;19.38;17.65;;;19.80;89.90;;;;;;5068767;28;20031;-61
2022/07/21 10:28:24;;;;;;;19.95;17.80;;;19.80;89.90;;;;;;5069102;28;20338;-60
2022/07/21 10:30:54;;;;;;;19.20;16.80;;;19.80;89.90;;;;;;5068766;28;20074;-60
2022/07/21 10:33:44;;;;;;;19.30;17.52;;;19.80;90.00;;;;;;5051108;28;20384;-59
2022/07/21 10:36:34;;;;;;;18.73;17.08;;;19.80;90.00;;;;;;5068119;28;20528;-58
2022/07/21 10:39:12;;;;;;;;;;;19.90;90.20;;;;;;5039433;28;20433;-58
2022/07/21 10:41:59;;;;;;;20.67;18.63;;;20.00;90.30;;;;;;5050383;28;19904;-59
2022/07/21 10:44:32;;;;;;;19.88;17.98;;;20.20;90.20;;;;;;5068197;28;20020;-58
2022/07/21 10:47:04;;;;;;;21.85;19.95;;;20.30;90.30;;;;;;5050536;28;20044;-59
2022/07/21 10:49:54;;;;;;;18.10;16.30;;;20.30;89.70;;;;;;5068710;28;20059;-60
2022/07/21 10:52:35;;;;;;;;;;;20.40;90.00;;;;;;5069078;28;20039;-56
2022/07/21 10:55:16;;;;;;;21.45;19.55;;;20.60;89.70;;;;;;5068700;28;19904;-56
2022/07/21 10:57:47;;;;;;;19.45;17.65;;;20.80;89.80;;;;;;5069218;28;20028;-57
2022/07/21 11:00:24;;;;;;;20.00;18.17;;;20.90;89.20;;;;;;5068496;28;20032;-54
2022/07/21 11:03:03;;;;;;;18.92;17.13;;;20.90;88.90;;;;;;5068439;28;20109;-50
2022/07/21 11:05:33;;;;;;;20.08;18.30;;;21.10;89.10;;;;;;5068452;28;20031;-51
2022/07/21 11:08:19;;;;;;;17.98;16.23;;;21.20;88.50;;;;;;5068760;28;20028;-49
2022/07/21 11:10:52;;;;;;;18.75;17.05;;;21.10;88.10;;;;;;5068474;28;20028;-49
2022/07/21 11:13:22;;;;;;;17.70;16.10;;;21.10;88.30;;;;;;5068825;28;20028;-48
2022/07/21 11:16:00;;;;;;;17.73;16.00;;;21.10;88.20;;;;;;5068583;28;20040;-49
2022/07/21 11:18:31;;;;;;;18.92;17.20;;;21.00;88.30;;;;;;5050986;28;20016;-51
2022/07/21 11:21:16;;;;;;;17.92;16.33;;;21.00;88.50;;;;;;5050896;28;20038;-52
2022/07/21 11:24:00;;;;;;;15.30;13.90;;;21.00;88.50;;;;;;5068833;28;20032;-49
2022/07/21 11:26:26;;;;;;;19.48;17.73;;;21.10;88.80;;;;;;5068970;28;20056;-49
2022/07/21 11:29:06;;;;;;;22.75;20.48;;;21.20;88.50;;;;;;5069380;28;20021;-50
2022/07/21 11:31:46;;;;;;;18.02;16.23;;;21.20;88.20;;;;;;5072426;28;20350;-54
2022/07/21 11:34:13;;;;;;;20.63;18.52;;;21.20;88.20;;;;;;5072621;28;20449;-52
2022/07/21 11:36:40;;;;;;;15.38;13.95;;;21.20;88.40;;;;;;5054584;28;20036;-54
2022/07/21 11:39:12;;;;;;;17.45;15.68;;;21.30;88.50;;;;;;5072131;28;20031;-53
2022/07/21 11:41:43;;;;;;;17.73;16.17;;;21.40;88.40;;;;;;5071802;28;20024;-56
2022/07/21 11:44:23;;;;;;;20.38;18.52;;;21.50;88.20;;;;;;5072056;28;20048;-52
2022/07/21 11:47:11;;;;;;;17.80;16.30;;;21.60;88.10;;;;;;5054758;28;20045;-51
2022/07/21 11:49:39;;;;;;;17.98;16.38;;;21.80;88.10;;;;;;5071811;28;20523;-50
2022/07/21 11:52:17;;;;;;;18.55;16.95;;;21.90;87.70;;;;;;5071874;28;20035;-48
2022/07/21 11:54:46;;;;;;;19.52;17.73;;;22.10;87.60;;;;;;5071690;28;20089;-48
2022/07/21 11:57:15;;;;;;;22.17;20.17;;;22.30;87.40;;;;;;5054092;28;20024;-49
2022/07/21 11:59:48;;;;;;;19.65;17.77;;;22.50;87.00;;;;;;5054169;28;20537;-50
2022/07/21 12:02:18;;;;;;;19.13;17.52;;;22.50;86.60;;;;;;5071719;28;20028;-49
2022/07/21 12:05:01;;;;;;;15.77;14.48;;;22.70;85.80;;;;;;5071970;28;20033;-49
2022/07/21 12:07:46;;;;;;;18.65;16.98;;;22.60;85.80;;;;;;5071956;28;20521;-48
2022/07/21 12:10:16;;;;;;;19.77;18.13;;;22.80;86.00;;;;;;5054111;28;20055;-49
2022/07/21 12:12:49;;;;;;;17.77;16.08;;;22.90;85.70;;;;;;5071714;28;20338;-51
2022/07/21 12:15:41;;;;;;;19.40;17.45;;;22.60;84.60;;;;;;5071746;28;20029;-50
2022/07/21 12:18:26;;;;;;;14.82;13.48;;;22.60;84.80;;;;;;5071758;28;20158;-52
2022/07/21 12:21:05;;;;;;;17.88;16.38;;;22.60;85.30;;;;;;5071750;28;20025;-50
2022/07/21 12:23:31;;;;;;;17.08;15.48;;;22.50;85.30;;;;;;5071534;28;20028;-49
2022/07/21 12:26:01;;;;;;;16.30;14.93;;;22.60;85.90;;;;;;5071673;28;20031;-52
2022/07/21 12:28:44;;;;;;;;;;;22.70;85.90;;;;;;5071694;28;20447;-49
2022/07/21 12:31:20;;;;;;;16.75;15.20;;;22.70;85.40;;;;;;5071476;28;19966;-50
2022/07/21 12:33:48;;;;;;;18.80;17.00;;;22.80;85.60;;;;;;5071552;28;20036;-51
2022/07/21 12:36:18;;;;;;;19.30;17.58;;;22.80;85.10;;;;;;5071656;28;20038;-53
2022/07/21 12:38:47;;;;;;;18.05;16.33;;;22.90;85.60;;;;;;5054123;28;20112;-53
2022/07/21 12:41:15;;;;;;;18.08;16.48;;;22.90;84.90;;;;;;5053183;28;20060;-49
2022/07/21 12:43:46;;;;;;;18.15;16.60;;;22.80;83.40;;;;;;5053636;28;20044;-49
2022/07/21 12:46:19;;;;;;;16.90;15.25;;;22.90;84.40;;;;;;5071118;28;20047;-48
2022/07/21 12:48:49;;;;;;;16.48;15.07;;;22.90;84.00;;;;;;5070806;28;20086;-47